Time;durP1;ratioP1;P1;durP2;ratioP2;P2;SDS_P1;SDS_P2;PMS_P1;PMS_P2;Temp;Humidity;BMP_temperature;BMP_pressure;BME280_temperature;BME280_humidity;BME280_pressure;Samples;Min_cycle;Max_cycle;Signal;HPM_P1;HPM_P2
2022/01/08 00:02:44;;;;;;;12.90;7.37;;;1.30;99.90;;;;;;8407215;28;20240;-61
2022/01/08 00:06:45;;;;;;;9.27;6.00;;;1.40;73.40;;;;;;8399002;28;20191;-62
2022/01/08 00:10:46;;;;;;;9.50;6.37;;;1.40;24.70;;;;;;8411812;28;20177;-62
2022/01/08 00:14:47;;;;;;;10.30;5.27;;;1.40;1.00;;;;;;8408202;28;20210;-62
2022/01/08 00:18:48;;;;;;;8.40;5.40;;;1.40;1.00;;;;;;8411615;28;20241;-62
2022/01/08 00:22:53;;;;;;;8.57;5.43;;;1.50;1.00;;;;;;8409510;28;20209;-62
2022/01/08 00:26:53;;;;;;;6.53;5.07;;;1.50;1.00;;;;;;8406362;28;20180;-62
2022/01/08 00:30:54;;;;;;;8.27;5.47;;;1.50;1.00;;;;;;8413799;28;20216;-61
2022/01/08 00:34:55;;;;;;;9.63;5.93;;;1.50;1.00;;;;;;8401400;28;20181;-63
2022/01/08 00:38:56;;;;;;;6.40;5.13;;;1.50;1.00;;;;;;8417225;28;20200;-63
2022/01/08 00:42:57;;;;;;;9.47;6.47;;;1.50;1.00;;;;;;8413006;28;20271;-62
2022/01/08 00:46:58;;;;;;;9.13;6.23;;;1.50;1.00;;;;;;8416067;28;20206;-61
2022/01/08 00:50:59;;;;;;;10.67;7.00;;;1.50;99.90;;;;;;8421152;28;20189;-62
2022/01/08 00:55:00;;;;;;;9.37;6.50;;;1.50;99.90;;;;;;8414644;28;20226;-64
2022/01/08 00:59:03;;;;;;;11.20;7.03;;;1.60;99.90;;;;;;8415352;28;20281;-62
2022/01/08 01:03:04;;;;;;;9.97;6.40;;;1.60;20.80;;;;;;8416922;28;20211;-62
2022/01/08 01:07:05;;;;;;;8.50;5.67;;;1.60;1.00;;;;;;8421763;28;20208;-61
2022/01/08 01:11:05;;;;;;;8.83;5.60;;;1.60;99.90;;;;;;8419063;28;20185;-62
2022/01/08 01:15:09;;;;;;;9.87;6.23;;;1.50;1.00;;;;;;8408658;28;20220;-62
2022/01/08 01:19:10;;;;;;;7.50;5.33;;;1.50;99.90;;;;;;8420635;28;20257;-64
2022/01/08 01:23:14;;;;;;;9.43;5.90;;;1.60;99.90;;;;;;8419891;28;20213;-61
2022/01/08 01:27:54;;;;;;;9.90;6.20;;;1.50;99.90;;;;;;8409376;28;20298;-62
2022/01/08 01:48:56;;;;;;;9.40;5.27;;;1.60;99.90;;;;;;8410401;28;20605;-61
2022/01/08 01:52:56;;;;;;;11.70;7.07;;;1.60;99.90;;;;;;8413956;28;20189;-62
2022/01/08 01:56:59;;;;;;;11.17;6.20;;;1.60;99.90;;;;;;8413215;28;20249;-63
2022/01/08 02:01:01;;;;;;;8.50;6.07;;;1.60;99.90;;;;;;8417437;28;20268;-61
2022/01/08 02:05:02;;;;;;;7.37;5.50;;;1.60;99.90;;;;;;8411878;28;20309;-62
2022/01/08 02:09:03;;;;;;;6.77;5.23;;;1.50;1.00;;;;;;8408403;28;20184;-62
2022/01/08 02:13:04;;;;;;;7.93;5.07;;;1.50;1.00;;;;;;8416656;28;20187;-63
2022/01/08 02:17:08;;;;;;;10.20;6.03;;;1.50;92.00;;;;;;8415588;28;20203;-62
2022/01/08 02:21:10;;;;;;;8.17;5.40;;;1.50;99.90;;;;;;8407629;28;20237;-61
2022/01/08 02:25:11;;;;;;;7.37;5.77;;;1.50;1.00;;;;;;8414484;28;20204;-62
2022/01/08 02:29:17;;;;;;;8.37;5.97;;;1.50;1.00;;;;;;8407226;28;20185;-62
2022/01/08 02:33:22;;;;;;;8.90;6.00;;;1.50;1.00;;;;;;8403608;28;20216;-61
2022/01/08 02:37:26;;;;;;;7.57;5.77;;;1.50;99.90;;;;;;8405377;28;20248;-61
2022/01/08 02:41:27;;;;;;;7.27;5.40;;;1.40;99.90;;;;;;8409856;28;20199;-62
2022/01/08 02:45:30;;;;;;;8.93;5.77;;;1.50;99.90;;;;;;8402001;28;20212;-61
2022/01/08 02:49:35;;;;;;;7.47;5.20;;;1.40;1.00;;;;;;8409024;28;20188;-62
2022/01/08 02:53:36;;;;;;;9.67;6.07;;;1.40;1.00;;;;;;8413310;28;20188;-64
2022/01/08 02:57:37;;;;;;;9.93;6.53;;;1.40;1.00;;;;;;8410342;28;20225;-64
2022/01/08 03:01:38;;;;;;;7.40;5.57;;;1.50;16.00;;;;;;8412597;28;20499;-61
2022/01/08 03:05:38;;;;;;;9.37;5.97;;;1.50;1.00;;;;;;8399359;28;20203;-62
2022/01/08 03:09:41;;;;;;;10.80;6.93;;;1.40;13.30;;;;;;8414366;28;20177;-62
2022/01/08 03:13:42;;;;;;;9.77;6.40;;;1.50;94.60;;;;;;8410475;28;20187;-61
2022/01/08 03:17:44;;;;;;;10.57;6.73;;;1.50;99.90;;;;;;8413140;28;20212;-62
2022/01/08 03:21:51;;;;;;;8.03;6.30;;;1.50;1.00;;;;;;8412895;28;20180;-61
2022/01/08 03:25:52;;;;;;;7.97;5.83;;;1.50;99.90;;;;;;8410605;28;20300;-62
2022/01/08 03:29:53;;;;;;;9.07;6.17;;;1.40;99.90;;;;;;8417628;28;20670;-62
2022/01/08 03:33:54;;;;;;;9.13;5.90;;;1.50;1.00;;;;;;8410609;28;20214;-62
2022/01/08 03:37:55;;;;;;;8.87;5.73;;;1.40;99.90;;;;;;8411005;28;20177;-62
2022/01/08 03:41:56;;;;;;;9.47;6.90;;;1.50;15.50;;;;;;8407970;28;20281;-63
2022/01/08 03:45:57;;;;;;;10.47;6.97;;;1.50;99.90;;;;;;8411790;28;20257;-63
2022/01/08 03:49:59;;;;;;;17.37;9.37;;;1.40;1.00;;;;;;8412122;28;20180;-62
2022/01/08 03:54:00;;;;;;;17.63;9.70;;;1.40;99.90;;;;;;8414998;28;20210;-62
2022/01/08 03:58:01;;;;;;;14.83;8.63;;;1.40;99.90;;;;;;8415142;28;20183;-61
2022/01/08 04:02:03;;;;;;;19.03;11.40;;;1.40;99.90;;;;;;8410576;28;20185;-63
2022/01/08 04:06:04;;;;;;;19.23;11.07;;;1.30;1.00;;;;;;8415855;28;20303;-62
2022/01/08 04:10:07;;;;;;;14.93;8.90;;;1.30;1.00;;;;;;8420117;28;20259;-61
2022/01/08 04:14:12;;;;;;;10.57;7.47;;;1.30;99.90;;;;;;8412371;28;20216;-61
2022/01/08 04:18:13;;;;;;;13.43;8.23;;;1.30;99.90;;;;;;8408871;28;20244;-61
2022/01/08 04:22:16;;;;;;;15.53;8.00;;;1.30;99.90;;;;;;8408275;28;20189;-63
2022/01/08 04:26:17;;;;;;;13.47;10.43;;;1.30;99.90;;;;;;8421709;28;20176;-64
2022/01/08 04:30:18;;;;;;;14.13;11.40;;;1.30;1.00;;;;;;8421470;28;20181;-62
2022/01/08 04:34:19;;;;;;;10.63;8.30;;;1.30;1.00;;;;;;8418213;28;20249;-62
2022/01/08 04:38:20;;;;;;;12.87;8.03;;;1.30;99.90;;;;;;8418288;28;20197;-64
2022/01/08 04:42:21;;;;;;;10.50;6.90;;;1.40;1.00;;;;;;8415854;28;20279;-62
2022/01/08 04:46:21;;;;;;;8.13;6.13;;;1.40;1.00;;;;;;8414021;28;20253;-61
2022/01/08 04:50:23;;;;;;;9.87;6.63;;;1.50;1.00;;;;;;8414715;28;20181;-62
2022/01/08 04:54:23;;;;;;;11.13;7.33;;;1.50;99.90;;;;;;8409289;28;20235;-62
2022/01/08 04:58:24;;;;;;;9.50;6.93;;;1.60;1.00;;;;;;8405705;28;20200;-62
2022/01/08 05:02:25;;;;;;;9.63;6.80;;;1.60;1.00;;;;;;8418979;28;20192;-63
2022/01/08 05:06:26;;;;;;;9.73;6.33;;;1.70;29.40;;;;;;8419742;28;20185;-62
2022/01/08 05:10:33;;;;;;;8.97;6.43;;;1.70;1.00;;;;;;8416131;28;20237;-61
2022/01/08 05:14:34;;;;;;;10.60;8.87;;;1.80;28.10;;;;;;8417888;28;20188;-61
2022/01/08 05:18:35;;;;;;;13.00;8.13;;;1.80;20.10;;;;;;8416550;28;20208;-62
2022/01/08 05:22:53;;;;;;;11.50;6.87;;;1.80;99.90;;;;;;8415832;28;20564;-63
2022/01/08 05:26:54;;;;;;;11.03;7.63;;;1.80;1.00;;;;;;8416211;28;20181;-62
2022/01/08 05:30:54;;;;;;;8.73;6.67;;;1.80;1.00;;;;;;8416826;28;20184;-62
2022/01/08 05:34:55;;;;;;;10.23;6.77;;;1.80;1.00;;;;;;8416899;28;20191;-62
2022/01/08 05:38:56;;;;;;;9.03;7.67;;;1.80;1.00;;;;;;8414836;28;20554;-64
2022/01/08 05:42:57;;;;;;;9.87;7.37;;;1.80;1.00;;;;;;8436572;28;20207;-64
2022/01/08 05:46:58;;;;;;;13.97;10.87;;;1.80;1.00;;;;;;8419706;28;20219;-62
2022/01/08 05:50:59;;;;;;;15.43;9.43;;;1.80;1.00;;;;;;8410527;28;20227;-63
2022/01/08 05:55:00;;;;;;;14.17;8.90;;;1.70;61.90;;;;;;8409398;28;20188;-63
2022/01/08 05:59:01;;;;;;;15.43;7.80;;;1.80;87.60;;;;;;8415461;28;20184;-64
2022/01/08 06:03:02;;;;;;;14.60;9.47;;;1.70;1.00;;;;;;8408276;28;20215;-62
2022/01/08 06:07:03;;;;;;;13.67;8.27;;;1.80;1.00;;;;;;8408912;28;20184;-62
2022/01/08 06:11:04;;;;;;;9.93;7.23;;;1.70;1.00;;;;;;8408180;28;20190;-62
2022/01/08 06:15:05;;;;;;;8.13;6.07;;;1.70;1.00;;;;;;8409530;28;20431;-62
2022/01/08 06:19:10;;;;;;;9.83;6.13;;;1.70;1.00;;;;;;8413013;28;20504;-63
2022/01/08 06:23:11;;;;;;;10.90;7.20;;;1.70;1.00;;;;;;8400769;28;20258;-64
2022/01/08 06:27:13;;;;;;;8.60;5.67;;;1.70;99.90;;;;;;8401098;28;20211;-62
2022/01/08 06:36:11;;;;;;;8.80;5.30;;;1.70;1.00;;;;;;8414585;28;20216;-64
2022/01/08 06:40:12;;;;;;;9.47;7.23;;;1.70;99.90;;;;;;8407678;28;20344;-63
2022/01/08 06:44:13;;;;;;;7.87;6.43;;;1.70;99.90;;;;;;8411338;28;20212;-63
2022/01/08 06:53:11;;;;;;;13.53;8.20;;;1.70;99.90;;;;;;8407127;28;20192;-63
2022/01/08 06:57:12;;;;;;;12.37;7.43;;;1.70;99.90;;;;;;8406839;28;20189;-63
2022/01/08 07:01:12;;;;;;;9.63;5.97;;;1.70;99.90;;;;;;8403383;28;20232;-62
2022/01/08 07:05:13;;;;;;;9.50;5.57;;;1.80;55.40;;;;;;8405452;28;20219;-63
2022/01/08 07:09:14;;;;;;;9.53;6.60;;;1.80;38.00;;;;;;8409651;28;20207;-65
2022/01/08 07:13:15;;;;;;;9.70;5.60;;;1.80;1.00;;;;;;8408921;28;20231;-62
2022/01/08 07:17:16;;;;;;;12.67;7.97;;;1.80;1.00;;;;;;8408129;28;20275;-63
2022/01/08 07:21:17;;;;;;;12.70;6.90;;;1.80;1.00;;;;;;8412275;28;20192;-64
2022/01/08 07:25:18;;;;;;;7.97;5.53;;;1.90;99.90;;;;;;8404002;28;20242;-62
2022/01/08 07:29:18;;;;;;;9.47;6.93;;;1.90;99.90;;;;;;8402890;28;20219;-63
2022/01/08 07:33:19;;;;;;;9.50;6.17;;;2.00;99.90;;;;;;8404238;28;20191;-63
2022/01/08 07:37:21;;;;;;;13.20;6.93;;;2.10;96.60;;;;;;8410584;28;20184;-64
2022/01/08 07:41:21;;;;;;;9.67;5.27;;;2.20;1.00;;;;;;8407784;28;20196;-63
2022/01/08 07:45:22;;;;;;;11.17;6.90;;;2.20;1.00;;;;;;8411124;28;20212;-64
2022/01/08 07:49:23;;;;;;;10.07;6.57;;;2.30;99.90;;;;;;8414769;28;20194;-63
2022/01/08 07:53:24;;;;;;;10.30;6.23;;;2.30;99.90;;;;;;8414326;28;20189;-63
2022/01/08 07:57:25;;;;;;;9.40;5.77;;;2.30;99.90;;;;;;8406380;28;20192;-63
2022/01/08 08:01:26;;;;;;;6.50;5.03;;;2.40;99.90;;;;;;8410517;28;20189;-63
2022/01/08 08:05:27;;;;;;;8.27;7.33;;;2.40;99.90;;;;;;8410114;28;20238;-64
2022/01/08 08:09:28;;;;;;;12.83;9.67;;;2.50;99.90;;;;;;8405880;28;20185;-64
2022/01/08 08:13:28;;;;;;;24.13;11.80;;;2.40;99.90;;;;;;8405755;28;20187;-63
2022/01/08 08:17:29;;;;;;;15.10;9.23;;;2.40;99.90;;;;;;8400787;28;20584;-64
2022/01/08 08:21:30;;;;;;;10.13;6.57;;;2.40;99.90;;;;;;8410741;28;20182;-64
2022/01/08 08:25:31;;;;;;;9.60;6.40;;;2.50;99.90;;;;;;8411652;28;20257;-63
2022/01/08 08:29:32;;;;;;;9.20;5.97;;;2.60;18.30;;;;;;8416051;28;20183;-64
2022/01/08 08:33:33;;;;;;;6.57;5.20;;;2.60;54.30;;;;;;8411461;28;20191;-64
2022/01/08 08:37:35;;;;;;;7.83;4.63;;;2.70;1.00;;;;;;8412920;28;20177;-63
2022/01/08 08:41:36;;;;;;;8.10;5.30;;;2.70;1.00;;;;;;8411697;28;20200;-64
2022/01/08 08:45:39;;;;;;;8.77;6.33;;;2.80;1.00;;;;;;8401688;28;20312;-64
2022/01/08 08:49:40;;;;;;;10.27;7.33;;;3.00;1.00;;;;;;8412639;28;20185;-64
2022/01/08 08:53:41;;;;;;;10.80;6.50;;;3.10;99.90;;;;;;8412719;28;20389;-63
2022/01/08 08:57:42;;;;;;;7.90;5.20;;;3.00;99.90;;;;;;8415608;28;20330;-64
2022/01/08 09:01:43;;;;;;;5.40;4.47;;;2.90;99.90;;;;;;8405754;28;20195;-65
2022/01/08 09:05:44;;;;;;;9.57;4.87;;;3.00;99.90;;;;;;8410516;28;20216;-65
2022/01/08 09:09:45;;;;;;;6.87;4.33;;;3.30;99.90;;;;;;8414930;28;20212;-64
2022/01/08 09:13:45;;;;;;;5.33;4.10;;;3.60;99.90;;;;;;8410378;28;20303;-63
2022/01/08 09:17:48;;;;;;;6.47;4.13;;;3.80;91.60;;;;;;8415557;28;20213;-63
2022/01/08 09:21:50;;;;;;;6.57;5.23;;;3.80;1.00;;;;;;8414260;28;20186;-64
2022/01/08 09:25:51;;;;;;;6.97;5.00;;;3.70;64.90;;;;;;8402859;28;20242;-64
2022/01/08 09:29:52;;;;;;;11.27;7.20;;;3.70;37.30;;;;;;8416392;28;20289;-64
2022/01/08 09:33:52;;;;;;;17.90;9.10;;;3.80;18.10;;;;;;8408674;28;20189;-64
2022/01/08 09:37:54;;;;;;;11.03;6.43;;;4.00;1.00;;;;;;8412336;28;20192;-64
2022/01/08 09:41:54;;;;;;;8.40;5.37;;;3.90;1.00;;;;;;8411038;28;20207;-63
2022/01/08 09:45:55;;;;;;;7.47;5.43;;;4.00;1.00;;;;;;8408321;28;20241;-65
2022/01/08 09:49:56;;;;;;;6.27;4.10;;;4.00;1.00;;;;;;8408527;28;20195;-64
2022/01/08 09:53:57;;;;;;;6.00;4.00;;;4.10;1.00;;;;;;8407993;28;20484;-65
2022/01/08 09:57:59;;;;;;;8.07;4.83;;;4.20;1.00;;;;;;8413058;28;20249;-64
2022/01/08 10:02:02;;;;;;;7.97;6.73;;;4.40;1.00;;;;;;8409588;28;20184;-64
2022/01/08 10:06:03;;;;;;;8.60;5.97;;;4.60;1.00;;;;;;8405381;28;20215;-63
2022/01/08 10:10:17;;;;;;;8.10;4.90;;;4.80;1.00;;;;;;8403514;28;20193;-64
2022/01/08 10:14:29;;;;;;;7.70;4.13;;;5.10;99.90;;;;;;8403762;28;20188;-63
2022/01/08 10:18:33;;;;;;;6.10;4.20;;;5.10;99.90;;;;;;8401128;28;20208;-64
2022/01/08 10:22:34;;;;;;;6.57;4.33;;;5.00;99.90;;;;;;8408582;28;20303;-63
2022/01/08 10:26:40;;;;;;;6.23;4.43;;;5.10;99.90;;;;;;8409680;28;20427;-64
2022/01/08 10:30:40;;;;;;;7.27;4.00;;;5.30;99.90;;;;;;8404931;28;20205;-64
2022/01/08 10:34:48;;;;;;;8.73;4.53;;;5.50;99.90;;;;;;8402382;28;20196;-63
2022/01/08 10:38:54;;;;;;;7.57;4.70;;;5.70;99.90;;;;;;8403734;28;20200;-64
2022/01/08 10:42:55;;;;;;;6.33;5.10;;;5.80;99.90;;;;;;8408627;28;20283;-64
2022/01/08 10:47:09;;;;;;;7.13;4.70;;;6.00;99.90;;;;;;8414649;28;20188;-63
2022/01/08 10:51:23;;;;;;;11.83;7.07;;;6.10;99.90;;;;;;8416814;28;20173;-65
2022/01/08 10:55:33;;;;;;;13.82;9.55;;;6.10;99.90;;;;;;8414896;28;20400;-64
2022/01/08 10:59:36;;;;;;;8.33;4.97;;;6.10;99.90;;;;;;8413748;28;20184;-65
2022/01/08 11:03:39;;;;;;;5.40;3.97;;;6.00;99.90;;;;;;8417595;28;20211;-64
2022/01/08 11:07:41;;;;;;;6.53;4.20;;;5.60;99.90;;;;;;8418393;28;20249;-64
2022/01/08 11:11:44;;;;;;;4.73;3.63;;;5.40;99.90;;;;;;8416374;28;20180;-64
2022/01/08 11:15:51;;;;;;;4.23;3.37;;;5.50;99.90;;;;;;8416720;28;20204;-64
2022/01/08 11:19:55;;;;;;;5.90;4.23;;;5.70;99.90;;;;;;8418078;28;20309;-64
2022/01/08 11:24:00;;;;;;;6.80;4.37;;;5.90;99.90;;;;;;8417900;28;20200;-64
2022/01/08 11:28:09;;;;;;;5.47;3.30;;;5.90;95.00;;;;;;8415168;28;20172;-64
2022/01/08 11:32:13;;;;;;;6.13;3.57;;;6.00;83.40;;;;;;8413419;28;20181;-64
2022/01/08 11:36:15;;;;;;;6.03;4.03;;;6.20;89.50;;;;;;8410242;28;20240;-64
2022/01/08 11:40:21;;;;;;;4.97;3.30;;;6.20;90.20;;;;;;8405402;28;20207;-64
2022/01/08 11:44:25;;;;;;;5.20;3.23;;;6.10;95.50;;;;;;8417954;28;20219;-64
2022/01/08 11:48:33;;;;;;;5.57;3.20;;;6.10;99.90;;;;;;8413623;28;20208;-63
2022/01/08 11:52:34;;;;;;;5.27;3.60;;;6.10;99.90;;;;;;8413360;28;20169;-64
2022/01/08 11:56:40;;;;;;;6.10;4.17;;;6.20;99.90;;;;;;8396536;28;20211;-64
2022/01/08 12:00:53;;;;;;;6.23;4.10;;;6.10;99.90;;;;;;8417796;28;20201;-64
2022/01/08 12:04:54;;;;;;;5.67;3.73;;;6.10;99.90;;;;;;8416160;28;20231;-64
2022/01/08 12:09:08;;;;;;;6.23;3.67;;;6.20;63.80;;;;;;8412952;28;20188;-64
2022/01/08 12:13:08;;;;;;;5.47;3.60;;;6.10;8.50;;;;;;8410888;28;20267;-64
2022/01/08 12:17:17;;;;;;;5.93;3.90;;;6.30;26.10;;;;;;8406256;28;20639;-63
2022/01/08 12:21:44;;;;;;;6.87;4.03;;;6.40;1.00;;;;;;8416404;28;20264;-64
2022/01/08 12:25:44;;;;;;;8.10;6.00;;;6.40;46.90;;;;;;8409985;28;20311;-65
2022/01/08 12:29:45;;;;;;;9.83;7.30;;;6.50;34.80;;;;;;8424563;28;20177;-65
2022/01/08 12:33:46;;;;;;;9.73;5.30;;;6.70;23.60;;;;;;8422529;28;20192;-64
2022/01/08 12:38:00;;;;;;;6.57;4.20;;;6.70;3.20;;;;;;8422538;28;20360;-64
2022/01/08 12:42:19;;;;;;;8.53;4.80;;;6.50;1.00;;;;;;8413076;28;20257;-64
2022/01/08 12:46:24;;;;;;;5.53;4.23;;;6.20;93.60;;;;;;8420178;28;20265;-64
2022/01/08 12:50:43;;;;;;;7.63;4.63;;;6.10;91.00;;;;;;8421610;28;20189;-65
2022/01/08 12:54:45;;;;;;;8.17;5.13;;;5.80;99.90;;;;;;8412858;28;20248;-64
2022/01/08 12:58:47;;;;;;;6.67;4.27;;;5.40;99.90;;;;;;8408608;28;20186;-65
2022/01/08 13:02:48;;;;;;;7.63;4.40;;;4.90;99.90;;;;;;8420739;28;20206;-64
2022/01/08 13:06:49;;;;;;;7.20;4.53;;;4.70;99.90;;;;;;8420491;28;20177;-64
2022/01/08 13:10:56;;;;;;;8.53;5.03;;;4.60;99.90;;;;;;8416237;28;20177;-64
2022/01/08 13:15:02;;;;;;;6.33;4.67;;;4.60;1.00;;;;;;8421437;28;20176;-65
2022/01/08 13:19:18;;;;;;;7.87;4.47;;;4.70;1.00;;;;;;8420124;28;20187;-65
2022/01/08 13:23:20;;;;;;;8.30;4.87;;;4.70;99.90;;;;;;8418073;28;20196;-64
2022/01/08 13:27:22;;;;;;;6.53;4.23;;;4.70;1.00;;;;;;8418220;28;20252;-64
2022/01/08 13:31:43;;;;;;;6.53;4.47;;;4.70;1.00;;;;;;8421085;28;20177;-64
2022/01/08 13:35:45;;;;;;;6.10;4.27;;;4.70;1.00;;;;;;8406733;28;20244;-64
2022/01/08 13:39:55;;;;;;;7.23;4.30;;;4.70;1.00;;;;;;8419860;28;20200;-64
2022/01/08 13:43:56;;;;;;;6.53;4.07;;;4.60;1.00;;;;;;8419340;28;20200;-65
2022/01/08 13:47:59;;;;;;;5.83;3.53;;;4.50;1.00;;;;;;8421616;28;20184;-65
2022/01/08 13:52:02;;;;;;;5.27;3.57;;;4.40;1.00;;;;;;8419737;28;20179;-64
2022/01/08 13:56:04;;;;;;;7.23;3.33;;;4.40;1.00;;;;;;8418891;28;20187;-64
2022/01/08 14:00:16;;;;;;;5.10;3.30;;;4.30;1.00;;;;;;8413746;28;20185;-64
2022/01/08 14:04:17;;;;;;;4.40;3.17;;;4.20;1.00;;;;;;8404823;28;20316;-64
2022/01/08 14:08:18;;;;;;;3.57;3.07;;;4.10;29.10;;;;;;8410540;28;20173;-64
2022/01/08 14:12:19;;;;;;;4.47;3.00;;;4.10;49.60;;;;;;8416807;28;20168;-64
2022/01/08 14:16:31;;;;;;;5.27;3.00;;;4.10;99.90;;;;;;8415175;28;20270;-64
2022/01/08 14:20:32;;;;;;;5.17;2.80;;;4.10;99.90;;;;;;8417617;28;20180;-65
2022/01/08 14:24:37;;;;;;;6.57;3.23;;;4.10;92.90;;;;;;8417533;28;20207;-64
2022/01/08 14:28:37;;;;;;;12.87;6.33;;;4.00;99.90;;;;;;8420451;28;20169;-63
2022/01/08 14:32:42;;;;;;;6.70;4.57;;;3.90;99.90;;;;;;8418051;28;20261;-64
2022/01/08 14:36:53;;;;;;;6.07;3.57;;;3.80;99.90;;;;;;8417763;28;20196;-64
2022/01/08 14:40:56;;;;;;;5.47;3.40;;;3.70;99.90;;;;;;8419052;28;20201;-64
2022/01/08 14:45:01;;;;;;;3.93;3.17;;;3.50;1.00;;;;;;8417053;28;20208;-64
2022/01/08 14:49:02;;;;;;;6.10;3.50;;;3.50;23.00;;;;;;8417906;28;20185;-65
2022/01/08 14:53:04;;;;;;;5.30;3.33;;;3.50;1.00;;;;;;8418411;28;20177;-64
2022/01/08 14:57:05;;;;;;;5.33;3.77;;;3.40;99.90;;;;;;8417489;28;20180;-64
2022/01/08 15:01:06;;;;;;;6.20;4.23;;;3.20;99.90;;;;;;8418020;28;20227;-64
2022/01/08 15:05:09;;;;;;;8.33;4.97;;;3.10;81.40;;;;;;8404270;28;20204;-64
2022/01/08 15:09:10;;;;;;;6.40;4.40;;;3.00;99.90;;;;;;8417065;28;20185;-64
2022/01/08 15:13:11;;;;;;;6.93;4.30;;;3.00;99.90;;;;;;8417188;28;20273;-64
2022/01/08 15:17:12;;;;;;;7.73;4.70;;;2.90;97.20;;;;;;8419019;28;20212;-64
2022/01/08 15:21:14;;;;;;;8.43;4.83;;;2.80;99.90;;;;;;8418715;28;20188;-64
2022/01/08 15:25:15;;;;;;;7.70;5.33;;;2.50;1.00;;;;;;8418287;28;20216;-64
2022/01/08 15:29:15;;;;;;;8.37;4.80;;;2.40;99.90;;;;;;8417423;28;20490;-64
2022/01/08 15:33:17;;;;;;;7.03;4.80;;;2.30;99.90;;;;;;8417520;28;20185;-64
2022/01/08 15:37:19;;;;;;;9.43;7.13;;;2.20;99.90;;;;;;8416701;28;20193;-64
2022/01/08 15:41:19;;;;;;;10.47;6.37;;;2.20;99.90;;;;;;8417452;28;20211;-62
2022/01/08 15:45:20;;;;;;;10.00;5.90;;;2.20;99.90;;;;;;8416806;28;20235;-62
2022/01/08 15:49:21;;;;;;;8.30;5.30;;;2.20;99.90;;;;;;8417641;28;20187;-63
2022/01/08 15:53:22;;;;;;;9.13;5.63;;;2.20;99.90;;;;;;8414917;28;20248;-64
2022/01/08 15:57:23;;;;;;;11.43;6.90;;;2.10;99.90;;;;;;8402828;28;20200;-63
2022/01/08 16:01:24;;;;;;;13.03;8.97;;;2.00;99.90;;;;;;8416232;28;20188;-63
2022/01/08 16:05:29;;;;;;;15.57;10.23;;;1.90;99.90;;;;;;8422627;28;20598;-63
2022/01/08 16:09:30;;;;;;;13.70;8.30;;;1.80;99.90;;;;;;8413757;28;20252;-62
2022/01/08 16:13:31;;;;;;;11.50;8.10;;;1.70;99.90;;;;;;8417019;28;20366;-63
2022/01/08 16:17:32;;;;;;;13.47;9.60;;;1.70;99.90;;;;;;8422950;28;20559;-64
2022/01/08 16:21:34;;;;;;;14.70;10.80;;;1.70;99.90;;;;;;8420814;28;20248;-63
2022/01/08 16:25:35;;;;;;;22.27;11.57;;;1.70;99.90;;;;;;8421869;28;20297;-63
2022/01/08 16:29:36;;;;;;;21.80;12.83;;;1.70;99.90;;;;;;8423840;28;20181;-63
2022/01/08 16:33:37;;;;;;;30.33;17.00;;;1.60;99.90;;;;;;8421666;28;20187;-64
2022/01/08 16:37:38;;;;;;;39.10;20.03;;;1.60;99.90;;;;;;8423078;28;20184;-63
2022/01/08 16:41:39;;;;;;;23.97;13.20;;;1.60;99.90;;;;;;8422521;28;20200;-63
2022/01/08 16:45:42;;;;;;;17.83;10.93;;;1.60;99.90;;;;;;8422346;28;20215;-62
2022/01/08 16:49:43;;;;;;;13.97;8.77;;;1.60;99.90;;;;;;8422726;28;20231;-63
2022/01/08 16:53:47;;;;;;;9.80;6.30;;;1.60;99.90;;;;;;8421849;28;20181;-64
2022/01/08 16:57:48;;;;;;;19.10;10.73;;;1.60;99.90;;;;;;8420851;28;20188;-63
2022/01/08 17:01:49;;;;;;;112.13;31.93;;;1.60;99.90;;;;;;8423308;28;20185;-63
2022/01/08 17:05:50;;;;;;;100.23;29.73;;;1.60;99.90;;;;;;8422761;28;20208;-62
2022/01/08 17:09:51;;;;;;;58.37;21.43;;;1.60;99.90;;;;;;8421407;28;20177;-64
2022/01/08 17:13:54;;;;;;;49.77;20.20;;;1.60;99.90;;;;;;8423049;28;20206;-64
2022/01/08 17:17:56;;;;;;;43.23;18.73;;;1.60;99.90;;;;;;8418088;28;20296;-64
2022/01/08 17:21:56;;;;;;;42.57;19.23;;;1.60;99.90;;;;;;8419504;28;20245;-65
2022/01/08 17:25:59;;;;;;;46.70;22.07;;;1.60;99.90;;;;;;8419755;28;20212;-64
2022/01/08 17:30:01;;;;;;;33.67;16.60;;;1.50;99.90;;;;;;8421964;28;20181;-62
2022/01/08 17:34:03;;;;;;;28.40;15.20;;;1.50;99.90;;;;;;8420563;28;20241;-62
2022/01/08 17:38:04;;;;;;;28.50;16.20;;;1.50;99.90;;;;;;8414759;28;20193;-63
2022/01/08 17:42:06;;;;;;;29.30;15.87;;;1.40;99.90;;;;;;8420016;28;20595;-62
2022/01/08 17:46:07;;;;;;;50.93;23.10;;;1.40;99.90;;;;;;8419996;28;20218;-64
2022/01/08 17:50:10;;;;;;;42.57;21.00;;;1.30;99.90;;;;;;8415162;28;20185;-63
2022/01/08 17:54:11;;;;;;;44.37;26.70;;;1.30;99.90;;;;;;8416894;28;20265;-62
2022/01/08 17:58:12;;;;;;;41.20;24.43;;;1.30;99.90;;;;;;8404398;28;20267;-64
2022/01/08 18:02:13;;;;;;;24.80;15.13;;;1.30;99.90;;;;;;8419150;28;20188;-65
2022/01/08 18:06:15;;;;;;;28.77;15.07;;;1.30;99.90;;;;;;8416315;28;20204;-64
2022/01/08 18:10:17;;;;;;;192.50;53.33;;;1.30;99.90;;;;;;8416348;28;20416;-64
2022/01/08 18:14:17;;;;;;;237.73;63.40;;;1.30;99.90;;;;;;8403237;28;20253;-62
2022/01/08 18:18:18;;;;;;;204.37;54.77;;;1.30;99.90;;;;;;8407467;28;20590;-63
2022/01/08 18:22:20;;;;;;;199.70;54.33;;;1.30;99.90;;;;;;8418595;28;20180;-63
2022/01/08 18:26:21;;;;;;;161.90;43.23;;;1.30;99.90;;;;;;8419595;28;20219;-63
2022/01/08 18:30:25;;;;;;;161.57;58.90;;;1.30;99.90;;;;;;8419481;28;20192;-63
2022/01/08 18:34:26;;;;;;;234.73;112.33;;;1.40;99.90;;;;;;8414992;28;20587;-63
2022/01/08 18:38:27;;;;;;;232.13;86.20;;;1.40;99.90;;;;;;8411646;28;20200;-65
2022/01/08 18:42:28;;;;;;;164.80;53.10;;;1.40;99.90;;;;;;8418964;28;20180;-63
2022/01/08 18:46:29;;;;;;;101.30;39.57;;;1.40;99.90;;;;;;8417982;28;20299;-63
2022/01/08 18:50:30;;;;;;;73.97;32.87;;;1.40;99.90;;;;;;8418909;28;20239;-63
2022/01/08 18:54:31;;;;;;;63.97;28.37;;;1.40;99.90;;;;;;8408182;28;20225;-63
2022/01/08 18:58:32;;;;;;;71.93;36.50;;;1.40;99.90;;;;;;8417474;28;20189;-62
2022/01/08 19:02:33;;;;;;;62.47;34.90;;;1.40;99.90;;;;;;8417367;28;20184;-62
2022/01/08 19:06:34;;;;;;;51.37;29.77;;;1.40;99.90;;;;;;8414993;28;20215;-63
2022/01/08 19:10:35;;;;;;;78.83;37.80;;;1.40;99.90;;;;;;8411913;28;20237;-62
2022/01/08 19:14:36;;;;;;;175.57;61.13;;;1.30;99.90;;;;;;8412895;28;20275;-63
2022/01/08 19:18:39;;;;;;;123.07;48.80;;;1.20;99.90;;;;;;8417403;28;20212;-63
2022/01/08 19:22:41;;;;;;;141.83;80.83;;;1.20;99.90;;;;;;8418066;28;20253;-62
2022/01/08 19:26:43;;;;;;;184.70;140.20;;;1.20;99.90;;;;;;8415688;28;20215;-63
2022/01/08 19:30:44;;;;;;;117.43;65.47;;;1.20;99.90;;;;;;8417429;28;20184;-63
2022/01/08 19:34:46;;;;;;;70.87;39.57;;;1.20;99.90;;;;;;8418613;28;20211;-63
2022/01/08 19:38:47;;;;;;;51.90;29.03;;;1.20;99.90;;;;;;8421081;28;20196;-62
2022/01/08 19:42:48;;;;;;;43.77;24.70;;;1.30;99.90;;;;;;8425083;28;20181;-63
2022/01/08 19:46:50;;;;;;;38.93;24.77;;;1.30;99.90;;;;;;8423382;28;20180;-63
2022/01/08 19:50:51;;;;;;;42.33;23.03;;;1.30;99.90;;;;;;8423041;28;20203;-65
2022/01/08 19:54:53;;;;;;;44.00;23.80;;;1.30;99.90;;;;;;8419048;28;20220;-63
2022/01/08 19:58:54;;;;;;;40.73;21.23;;;1.20;99.90;;;;;;8418681;28;20658;-62
2022/01/08 20:02:55;;;;;;;29.93;17.60;;;1.20;99.90;;;;;;8418594;28;20260;-63
2022/01/08 20:06:55;;;;;;;30.87;18.07;;;1.20;99.90;;;;;;8422999;28;20248;-64
2022/01/08 20:10:56;;;;;;;27.37;16.77;;;1.20;99.90;;;;;;8420132;28;20211;-66
2022/01/08 20:14:57;;;;;;;29.70;19.03;;;1.20;99.90;;;;;;8421035;28;20190;-63
2022/01/08 20:18:58;;;;;;;31.50;17.30;;;1.20;99.90;;;;;;8419971;28;20184;-64
2022/01/08 20:22:59;;;;;;;27.20;15.53;;;1.30;99.90;;;;;;8414846;28;20180;-62
2022/01/08 20:27:00;;;;;;;33.77;19.17;;;1.30;99.90;;;;;;8420014;28;20181;-63
2022/01/08 20:31:02;;;;;;;37.97;19.67;;;1.30;99.90;;;;;;8416583;28;20188;-64
2022/01/08 20:35:04;;;;;;;35.33;19.80;;;1.20;99.90;;;;;;8405776;28;20188;-72
2022/01/08 20:39:06;;;;;;;54.93;27.63;;;1.00;99.90;;;;;;8420681;28;20279;-63
2022/01/08 20:43:07;;;;;;;52.87;26.33;;;0.90;99.90;;;;;;8421774;28;20201;-63
2022/01/08 20:47:09;;;;;;;58.43;28.87;;;0.80;99.90;;;;;;8423331;28;20179;-64
2022/01/08 20:51:09;;;;;;;93.17;40.70;;;0.70;99.90;;;;;;8420150;28;20187;-63
2022/01/08 20:55:11;;;;;;;123.73;56.23;;;0.60;99.90;;;;;;8413357;28;20554;-63
2022/01/08 20:59:13;;;;;;;117.57;45.47;;;0.40;99.90;;;;;;8419969;28;20233;-63
2022/01/08 21:03:14;;;;;;;63.00;26.90;;;0.20;99.90;;;;;;8410997;28;20295;-65
2022/01/08 21:07:15;;;;;;;46.57;21.83;;;0.00;99.90;;;;;;8421816;28;20181;-63
2022/01/08 21:11:16;;;;;;;47.90;20.57;;;-0.20;99.90;;;;;;8422904;28;20188;-65
2022/01/08 21:15:17;;;;;;;45.33;20.07;;;-0.40;99.90;;;;;;8420661;28;20407;-62
2022/01/08 21:19:18;;;;;;;39.47;19.30;;;-0.60;99.90;;;;;;8419730;28;20192;-63
2022/01/08 21:23:21;;;;;;;37.50;17.87;;;-0.80;99.90;;;;;;8422487;28;20203;-62
2022/01/08 21:27:22;;;;;;;36.50;17.17;;;-0.90;99.90;;;;;;8420871;28;20194;-63
2022/01/08 21:31:23;;;;;;;30.30;15.93;;;-1.00;99.90;;;;;;8421769;28;20209;-64
2022/01/08 21:35:29;;;;;;;31.03;16.90;;;-1.10;99.90;;;;;;8411492;28;20196;-64